CheckWX is a tool to help pilots better visualize weather data.  It is not intended as a substitute for an official pre-flight weather briefing.

19:17:46 UTC

KBTR TAF
Baton Rouge Metropolitan, Ryan Field Airport
Baton Rouge, Louisiana, USA
KBTR 271744Z 2718/2818 02006KT P6SM OVC013 FM272100 36005KT P6SM BKN030 FM280000 02002KT P6SM SCT030 FM281000 00000KT 5SM BR BKN008 FM281500 VRB04KT P6SM BKN015

Jan-27@
18:00 UTC

Jan-27 @ 18:00 UTC

Jan-27@
21:00 UTC

Jan-27 @ 21:00 UTC

KBTR 271744Z 2718/2818 02006KT P6SM OVC013
Wind
  • 020° at 6 KTS
Cloud Levels
  • Overcast at 1,300' AGL

Jan-27@
21:00 UTC

Jan-27 @ 21:00 UTC

Jan-28@
00:00 UTC

Jan-28 @ 00:00 UTC

FM272100 36005KT P6SM BKN030

From

From Standard forecast or significant change

Wind
  • 360° at 5 KTS
Cloud Levels
  • Broken at 3,000' AGL

Jan-28@
00:00 UTC

Jan-28 @ 00:00 UTC

Jan-28@
10:00 UTC

Jan-28 @ 10:00 UTC

FM280000 02002KT P6SM SCT030

From

From Standard forecast or significant change

Wind
  • 020° at 2 KTS
Cloud Levels
  • Scattered at 3,000' AGL

Jan-28@
10:00 UTC

Jan-28 @ 10:00 UTC

Jan-28@
15:00 UTC

Jan-28 @ 15:00 UTC

FM281000 00000KT 5SM BR BKN008

From

From Standard forecast or significant change

Conditions
Mist
Cloud Levels
  • Broken at 800' AGL

Jan-28@
15:00 UTC

Jan-28 @ 15:00 UTC

Jan-28@
18:00 UTC

Jan-28 @ 18:00 UTC

FM281500 VRB04KT P6SM BKN015

From

From Standard forecast or significant change

Wind
  • Variable at 4 KTS
Cloud Levels
  • Broken at 1,500' AGL